Aventura, Florida
Current Conditions -  °F | °C
As of 1:53 AM on Sunday 26 Oct 2014 (Local Time) from KHWO Reporting Station
Broken Clouds Broken Clouds  
Wind Chill: 71°   Ceiling: 6000
Heat Index: 71°   Visibility: 10mi
Dew Point: 64°   Wind: 8mph
Humidity: 78%   Direction: 330°NNW
Pressure: 29.94"   Gusts: NA
Location:  25.9536°N, 80.1568°W
Report Text: KHWO 260553Z AUTO 33007KT 10SM BKN060 22/18 A2994 RMK AO2 SLP138 T02170178 10233 20206 56006
Loading
Personal Weather Stations






























Interactive Weather Map New forecast layout! Learn more

10-Day Weather Forecast

Advertisements
Track Severe Weather on mobile